Time;durP1;ratioP1;P1;durP2;ratioP2;P2;SDS_P1;SDS_P2;PMS_P1;PMS_P2;Temp;Humidity;BMP_temperature;BMP_pressure;BME280_temperature;BME280_humidity;BME280_pressure;Samples;Min_cycle;Max_cycle;Signal;HPM_P1;HPM_P2
2022/09/13 00:07:30;;;;;;;;;;;;;;;;;;20760389;28;19964;-64
2022/09/13 00:17:32;;;;;;;;;;;;;;;;;;20741839;28;20056;-63
2022/09/13 00:27:34;;;;;;;;;;;;;;;;;;20759109;28;19968;-62
2022/09/13 00:37:35;;;;;;;;;;;;;;;;;;20759088;28;19926;-63
2022/09/13 00:47:37;;;;;;;;;;;;;;;;;;20760160;28;19965;-64
2022/09/13 00:57:39;;;;;;;;;;;;;;;;;;20758082;28;19968;-63
2022/09/13 01:07:40;;;;;;;;;;;;;;;;;;20756918;28;20430;-63
2022/09/13 01:17:42;;;;;;;;;;;;;;;;;;20755874;28;19995;-62
2022/09/13 01:27:45;;;;;;;;;;;;;;;;;;20755197;28;20467;-62
2022/09/13 01:37:47;;;;;;;;;;;;;;;;;;20755380;28;19948;-64
2022/09/13 01:47:51;;;;;;;;;;;;;;;;;;20753337;28;20024;-64
2022/09/13 01:57:54;;;;;;;;;;;;;;;;;;20752402;28;20016;-64
2022/09/13 02:07:57;;;;;;;;;;;;;;;;;;20751536;28;20443;-63
2022/09/13 02:18:00;;;;;;;;;;;;;;;;;;20750978;28;19972;-63
2022/09/13 02:28:02;;;;;;;;;;;;;;;;;;20750483;28;20393;-63
2022/09/13 02:38:04;;;;;;;;;;;;;;;;;;20749831;28;19925;-62
2022/09/13 02:48:07;;;;;;;;;;;;;;;;;;20749191;28;20421;-63
2022/09/13 02:58:08;;;;;;;;;;;;;;;;;;20749892;28;20018;-63
2022/09/13 03:08:10;;;;;;;;;;;;;;;;;;20748619;28;19926;-62
2022/09/13 03:18:12;;;;;;;;;;;;;;;;;;20747973;28;19936;-62
2022/09/13 03:28:14;;;;;;;;;;;;;;;;;;20760422;28;19925;-63
2022/09/13 03:38:15;;;;;;;;;;;;;;;;;;20762788;28;19937;-63
2022/09/13 03:48:17;;;;;;;;;;;;;;;;;;20762400;28;20012;-63
2022/09/13 03:58:19;;;;;;;;;;;;;;;;;;20761497;28;19926;-63
2022/09/13 04:08:21;;;;;;;;;;;;;;;;;;20761066;28;20362;-62
2022/09/13 04:18:23;;;;;;;;;;;;;;;;;;20760575;28;19933;-61
2022/09/13 04:28:25;;;;;;;;;;;;;;;;;;20758300;28;19925;-63
2022/09/13 04:38:29;;;;;;;;;;;;;;;;;;20758168;28;19930;-62
2022/09/13 04:48:33;;;;;;;;;;;;;;;;;;20758981;28;19947;-64
2022/09/13 04:58:35;;;;;;;;;;;;;;;;;;20757016;28;19948;-63
2022/09/13 05:08:37;;;;;;;;;;;;;;;;;;20756480;28;19936;-62
2022/09/13 05:18:38;;;;;;;;;;;;;;;;;;20755638;28;19925;-63
2022/09/13 05:28:40;;;;;;;;;;;;;;;;;;20754349;28;19932;-62
2022/09/13 05:38:43;;;;;;;;;;;;;;;;;;20754812;28;20289;-62
2022/09/13 05:48:45;;;;;;;;;;;;;;;;;;20752732;28;20301;-63
2022/09/13 05:58:49;;;;;;;;;;;;;;;;;;20751839;28;19929;-61
2022/09/13 06:08:51;;;;;;;;;;;;;;;;;;20751311;28;19926;-63
2022/09/13 06:18:53;;;;;;;;;;;;;;;;;;20751376;28;19925;-63
2022/09/13 06:28:55;;;;;;;;;;;;;;;;;;20750161;28;19934;-62
2022/09/13 06:38:59;;;;;;;;;;;;;;;;;;20749110;28;20019;-62
2022/09/13 06:49:01;;;;;;;;;;;;;;;;;;20749009;28;19925;-62
2022/09/13 06:59:06;;;;;;;;;;;;;;;;;;20757689;28;19926;-62
2022/09/13 07:09:08;;;;;;;;;;;;;;;;;;20764611;28;19926;-62
2022/09/13 07:19:10;;;;;;;;;;;;;;;;;;20763930;28;19932;-63
2022/09/13 07:29:14;;;;;;;;;;;;;;;;;;20762719;28;19933;-63
2022/09/13 07:39:16;;;;;;;;;;;;;;;;;;20762587;28;19929;-61
2022/09/13 07:49:18;;;;;;;;;;;;;;;;;;20761066;28;19952;-62
2022/09/13 07:59:19;;;;;;;;;;;;;;;;;;20761793;28;19933;-62
2022/09/13 08:09:21;;;;;;;;;;;;;;;;;;20760145;28;19925;-62
2022/09/13 08:19:23;;;;;;;;;;;;;;;;;;20759504;28;20012;-62
2022/09/13 08:29:25;;;;;;;;;;;;;;;;;;20758441;28;20262;-62
2022/09/13 08:39:27;;;;;;;;;;;;;;;;;;20759680;28;19936;-62
2022/09/13 08:49:29;;;;;;;;;;;;;;;;;;20757008;28;19925;-68
2022/09/13 08:59:31;;;;;;;;;;;;;;;;;;20739024;28;19926;-70
2022/09/13 09:09:33;;;;;;;;;;;;;;;;;;20737864;28;19925;-69
2022/09/13 09:19:34;;;;;;;;;;;;;;;;;;20801078;28;20318;-69
2022/09/13 09:29:39;;;;;;;;;;;;;;;;;;20809963;28;19937;-71
2022/09/13 09:39:41;;;;;;;;;;;;;;;;;;20835224;28;19925;-69
2022/09/13 10:00:03;;;;;;;;;;;;;;;;;;20792609;28;20023;-61
2022/09/13 10:10:05;;;;;;;;;;;;;;;;;;20759610;28;19930;-67
2022/09/13 10:20:07;;;;;;;;;;;;;;;;;;20751867;28;20294;-69
2022/09/13 10:30:08;;;;;;;;;;;;;;;;;;20818604;28;20387;-67
2022/09/13 10:40:10;;;;;;;;;;;;;;;;;;20830772;28;20285;-72
2022/09/13 10:50:12;;;;;;;;;;;;;;;;;;20831220;28;19925;-68
2022/09/13 11:00:16;;;;;;;;;;;;;;;;;;20831225;28;20006;-70
2022/09/13 11:10:17;;;;;;;;;;;;;;;;;;20817152;28;19983;-62
2022/09/13 11:20:20;;;;;;;;;;;;;;;;;;20800807;28;20041;-65
2022/09/13 11:30:22;;;;;;;;;;;;;;;;;;20777162;28;19933;-66
2022/09/13 11:40:24;;;;;;;;;;;;;;;;;;20748261;28;19949;-75
2022/09/13 11:50:27;;;;;;;;;;;;;;;;;;20763203;28;19926;-70
2022/09/13 12:00:29;;;;;;;;;;;;;;;;;;20748048;28;19925;-63
2022/09/13 12:10:31;;;;;;;;;;;;;;;;;;20760536;28;20337;-67
2022/09/13 12:20:33;;;;;;;;;;;;;;;;;;20760101;28;19981;-63
2022/09/13 12:30:35;;;;;;;;;;;;;;;;;;20761207;28;20004;-65
2022/09/13 12:40:37;;;;;;;;;;;;;;;;;;20759670;28;20008;-63
2022/09/13 12:50:39;;;;;;;;;;;;;;;;;;20757016;28;20036;-64
2022/09/13 13:00:41;;;;;;;;;;;;;;;;;;20757150;28;20390;-65
2022/09/13 13:10:43;;;;;;;;;;;;;;;;;;20755483;28;19925;-63
2022/09/13 13:20:44;;;;;;;;;;;;;;;;;;20755338;28;20430;-65
2022/09/13 13:30:46;;;;;;;;;;;;;;;;;;20753369;28;20086;-65
2022/09/13 13:40:49;;;;;;;;;;;;;;;;;;20753584;28;20008;-63
2022/09/13 13:50:51;;;;;;;;;;;;;;;;;;20752271;28;20393;-66
2022/09/13 14:00:53;;;;;;;;;;;;;;;;;;20753096;28;19929;-67
2022/09/13 14:10:55;;;;;;;;;;;;;;;;;;20751224;28;19997;-67
2022/09/13 14:20:56;;;;;;;;;;;;;;;;;;20750606;28;19983;-67
2022/09/13 14:31:00;;;;;;;;;;;;;;;;;;20749743;28;19925;-70
2022/09/13 14:41:04;;;;;;;;;;;;;;;;;;20749432;28;20016;-65
2022/09/13 14:51:06;;;;;;;;;;;;;;;;;;20730980;28;19932;-65
2022/09/13 15:01:07;;;;;;;;;;;;;;;;;;20748824;28;20350;-64
2022/09/13 15:11:09;;;;;;;;;;;;;;;;;;20748407;28;19932;-67
2022/09/13 15:21:11;;;;;;;;;;;;;;;;;;20758133;28;19930;-64
2022/09/13 15:31:13;;;;;;;;;;;;;;;;;;20763384;28;19929;-65
2022/09/13 15:41:15;;;;;;;;;;;;;;;;;;20763428;28;19968;-65
2022/09/13 15:51:17;;;;;;;;;;;;;;;;;;20762453;28;20091;-66
2022/09/13 16:01:19;;;;;;;;;;;;;;;;;;20762089;28;20323;-64
2022/09/13 16:11:21;;;;;;;;;;;;;;;;;;20761738;28;19932;-65
2022/09/13 16:21:24;;;;;;;;;;;;;;;;;;20760963;28;20095;-66
2022/09/13 16:31:26;;;;;;;;;;;;;;;;;;20757804;28;19979;-65
2022/09/13 16:41:27;;;;;;;;;;;;;;;;;;20757850;28;19930;-65
2022/09/13 16:51:29;;;;;;;;;;;;;;;;;;20758737;28;20016;-64
2022/09/13 17:01:31;;;;;;;;;;;;;;;;;;20757047;28;19925;-64
2022/09/13 17:11:33;;;;;;;;;;;;;;;;;;20756513;28;19926;-66
2022/09/13 17:21:35;;;;;;;;;;;;;;;;;;20755555;28;19925;-67
2022/09/13 17:31:37;;;;;;;;;;;;;;;;;;20753930;28;19929;-64
2022/09/13 17:41:39;;;;;;;;;;;;;;;;;;20752367;28;19925;-65
2022/09/13 17:51:41;;;;;;;;;;;;;;;;;;20735947;28;19972;-64
2022/09/13 18:01:43;;;;;;;;;;;;;;;;;;20752546;28;19933;-64
2022/09/13 18:11:44;;;;;;;;;;;;;;;;;;20751872;28;19940;-65
2022/09/13 18:21:46;;;;;;;;;;;;;;;;;;20751009;28;19933;-67
2022/09/13 18:31:48;;;;;;;;;;;;;;;;;;20750187;28;19930;-64
2022/09/13 18:41:50;;;;;;;;;;;;;;;;;;20750811;28;19969;-63
2022/09/13 18:51:52;;;;;;;;;;;;;;;;;;20754746;28;19925;-65
2022/09/13 19:01:54;;;;;;;;;;;;;;;;;;20775588;28;19929;-64
2022/09/13 19:11:56;;;;;;;;;;;;;;;;;;20776296;28;20271;-64
2022/09/13 19:21:58;;;;;;;;;;;;;;;;;;20775945;28;19952;-66
2022/09/13 19:32:00;;;;;;;;;;;;;;;;;;20774466;28;19925;-66
2022/09/13 19:42:02;;;;;;;;;;;;;;;;;;20775067;28;19925;-63
2022/09/13 19:52:04;;;;;;;;;;;;;;;;;;20774834;28;20297;-66
2022/09/13 20:02:06;;;;;;;;;;;;;;;;;;20772092;28;19925;-64
2022/09/13 20:12:08;;;;;;;;;;;;;;;;;;20760764;28;19936;-63
2022/09/13 20:22:10;;;;;;;;;;;;;;;;;;20760203;28;19932;-65
2022/09/13 20:32:12;;;;;;;;;;;;;;;;;;20741918;28;20401;-66
2022/09/13 20:42:16;;;;;;;;;;;;;;;;;;20758810;28;20016;-66
2022/09/13 20:52:18;;;;;;;;;;;;;;;;;;20758353;28;19977;-65
2022/09/13 21:02:20;;;;;;;;;;;;;;;;;;20757991;28;19926;-64
2022/09/13 21:12:22;;;;;;;;;;;;;;;;;;20756739;28;19986;-64
2022/09/13 21:22:24;;;;;;;;;;;;;;;;;;20756021;28;19925;-64
2022/09/13 21:32:26;;;;;;;;;;;;;;;;;;20755466;28;19925;-63
2022/09/13 21:42:29;;;;;;;;;;;;;;;;;;20755350;28;19937;-64
2022/09/13 21:52:30;;;;;;;;;;;;;;;;;;20755630;28;19925;-64
2022/09/13 22:02:33;;;;;;;;;;;;;;;;;;20753067;28;19929;-63
2022/09/13 22:12:36;;;;;;;;;;;;;;;;;;20752216;28;19983;-64
2022/09/13 22:22:38;;;;;;;;;;;;;;;;;;20751866;28;19933;-63
2022/09/13 22:32:40;;;;;;;;;;;;;;;;;;20805447;28;20285;-64
2022/09/13 22:42:44;;;;;;;;;;;;;;;;;;20831737;28;20118;-64
2022/09/13 22:52:46;;;;;;;;;;;;;;;;;;20832123;28;20016;-63
2022/09/13 23:02:48;;;;;;;;;;;;;;;;;;20831112;28;19929;-64
2022/09/13 23:12:50;;;;;;;;;;;;;;;;;;20831881;28;19925;-65
2022/09/13 23:22:52;;;;;;;;;;;;;;;;;;20830869;28;20297;-63
2022/09/13 23:32:54;;;;;;;;;;;;;;;;;;20812476;28;20381;-63
2022/09/13 23:42:56;;;;;;;;;;;;;;;;;;20839614;28;19925;-62
2022/09/13 23:52:58;;;;;;;;;;;;;;;;;;20826685;28;19929;-62
